createdAt,value
2018-05-17T00:02:12.882Z,12.20
2018-05-17T00:04:41.081Z,12.10
2018-05-17T00:07:09.287Z,12.10
2018-05-17T00:09:37.492Z,12.10
2018-05-17T00:12:05.717Z,12.10
2018-05-17T00:14:33.939Z,12.10
2018-05-17T00:17:02.220Z,12.00
2018-05-17T00:19:30.471Z,12.00
2018-05-17T00:21:58.704Z,12.00
2018-05-17T00:24:26.962Z,11.90
2018-05-17T00:26:55.151Z,11.90
2018-05-17T00:29:23.368Z,11.90
2018-05-17T00:31:51.578Z,11.80
2018-05-17T00:34:19.804Z,11.80
2018-05-17T00:36:48.022Z,11.70
2018-05-17T00:39:16.227Z,11.70
2018-05-17T00:41:44.632Z,11.70
2018-05-17T00:44:13.627Z,11.60
2018-05-17T00:46:41.835Z,11.60
2018-05-17T00:49:10.036Z,11.60
2018-05-17T00:51:39.045Z,11.50
2018-05-17T00:54:07.261Z,11.50
2018-05-17T00:56:35.487Z,11.50
2018-05-17T00:59:03.797Z,11.40
2018-05-17T01:01:32.036Z,11.40
2018-05-17T01:04:00.215Z,11.40
2018-05-17T01:06:28.397Z,11.40
2018-05-17T01:08:58.246Z,11.30
2018-05-17T01:11:27.016Z,11.30
2018-05-17T01:13:56.036Z,11.30
2018-05-17T01:16:24.826Z,11.30
2018-05-17T01:18:54.562Z,11.20
2018-05-17T01:21:22.773Z,11.20
2018-05-17T01:23:51.052Z,11.20
2018-05-17T01:26:20.515Z,11.10
2018-05-17T01:28:49.535Z,11.10
2018-05-17T01:31:18.299Z,11.10
2018-05-17T01:33:46.798Z,11.10
2018-05-17T01:36:15.737Z,11.00
2018-05-17T01:38:44.663Z,11.00
2018-05-17T01:41:13.120Z,11.00
2018-05-17T01:43:41.687Z,10.90
2018-05-17T01:46:10.792Z,10.90
2018-05-17T01:48:38.971Z,10.90
2018-05-17T01:51:07.154Z,10.80
2018-05-17T01:53:36.269Z,10.80
2018-05-17T01:56:04.462Z,10.80
2018-05-17T01:58:32.780Z,10.80
2018-05-17T02:01:01.706Z,10.70
2018-05-17T02:03:30.708Z,10.70
2018-05-17T02:05:58.905Z,10.70
2018-05-17T02:08:27.081Z,10.70
2018-05-17T02:10:55.286Z,10.60
2018-05-17T02:13:23.464Z,10.60
2018-05-17T02:15:52.404Z,10.60
2018-05-17T02:18:20.597Z,10.50
2018-05-17T02:20:48.799Z,10.50
2018-05-17T02:23:16.985Z,10.50
2018-05-17T02:25:45.187Z,10.50
2018-05-17T02:28:13.370Z,10.40
2018-05-17T02:30:41.620Z,10.40
2018-05-17T02:33:09.822Z,10.40
2018-05-17T02:35:38.020Z,10.40
2018-05-17T02:38:06.202Z,10.30
2018-05-17T02:40:34.393Z,10.30
2018-05-17T02:43:05.899Z,10.30
2018-05-17T02:45:34.108Z,10.30
2018-05-17T02:48:02.289Z,10.20
2018-05-17T02:50:30.459Z,10.20
2018-05-17T02:52:58.665Z,10.20
2018-05-17T02:55:26.849Z,10.20
2018-05-17T02:57:55.377Z,10.10
2018-05-17T03:00:23.577Z,10.10
2018-05-17T03:02:52.540Z,10.10
2018-05-17T03:05:20.717Z,10.10
2018-05-17T03:07:48.911Z,10.00
2018-05-17T03:10:17.073Z,10.00
2018-05-17T03:12:45.261Z,10.00
2018-05-17T03:15:13.777Z,10.00
2018-05-17T03:17:41.962Z,9.90
2018-05-17T03:20:10.140Z,9.90
2018-05-17T03:22:38.343Z,9.90
2018-05-17T03:25:06.519Z,9.80
2018-05-17T03:27:34.696Z,9.80
2018-05-17T03:30:03.731Z,9.80
2018-05-17T03:32:31.906Z,9.70
2018-05-17T03:35:00.826Z,9.70
2018-05-17T03:37:29.018Z,9.70
2018-05-17T03:39:57.449Z,9.60
2018-05-17T03:42:26.605Z,9.60
2018-05-17T03:44:55.137Z,9.60
2018-05-17T03:47:24.138Z,9.50
2018-05-17T03:49:52.597Z,9.50
2018-05-17T03:52:20.816Z,9.40
2018-05-17T03:54:48.982Z,9.40
2018-05-17T03:57:17.157Z,9.40
2018-05-17T03:59:45.356Z,9.40
2018-05-17T04:02:31.285Z,9.30
2018-05-17T04:05:18.065Z,9.30
2018-05-17T04:07:47.056Z,9.20
2018-05-17T04:10:15.232Z,9.20
2018-05-17T04:12:43.439Z,9.20
2018-05-17T04:15:12.434Z,9.20
2018-05-17T04:17:41.885Z,9.20
2018-05-17T04:20:10.076Z,9.20
2018-05-17T04:22:38.248Z,9.10
2018-05-17T04:25:06.672Z,9.10
2018-05-17T04:27:34.884Z,9.10
2018-05-17T04:30:03.103Z,9.20
2018-05-17T04:32:31.664Z,9.20
2018-05-17T04:34:59.848Z,9.20
2018-05-17T04:37:28.020Z,9.20
2018-05-17T04:39:56.200Z,9.20
2018-05-17T04:42:24.403Z,9.20
2018-05-17T04:44:52.694Z,9.20
2018-05-17T04:47:20.861Z,9.20
2018-05-17T04:49:49.065Z,9.20
2018-05-17T04:52:17.259Z,9.20
2018-05-17T04:54:45.447Z,9.20
2018-05-17T04:57:14.043Z,9.30
2018-05-17T04:59:43.223Z,9.30
2018-05-17T05:02:11.396Z,9.30
2018-05-17T05:04:39.587Z,9.40
2018-05-17T05:07:07.885Z,9.40
2018-05-17T05:09:36.192Z,9.40
2018-05-17T05:12:04.721Z,9.40
2018-05-17T05:14:32.885Z,9.40
2018-05-17T05:17:01.063Z,9.50
2018-05-17T05:19:29.257Z,9.50
2018-05-17T05:21:57.932Z,9.50
2018-05-17T05:24:26.120Z,9.60
2018-05-17T05:26:55.753Z,9.60
2018-05-17T05:29:23.940Z,9.60
2018-05-17T05:31:52.716Z,9.70
2018-05-17T05:34:20.923Z,9.70
2018-05-17T05:36:49.934Z,9.80
2018-05-17T05:39:18.104Z,9.80
2018-05-17T05:41:46.307Z,9.90
2018-05-17T05:44:15.860Z,9.90
2018-05-17T05:46:44.393Z,10.00
2018-05-17T05:49:13.547Z,10.00
2018-05-17T05:51:41.706Z,10.10
2018-05-17T05:54:10.602Z,10.10
2018-05-17T05:56:39.979Z,10.20
2018-05-17T05:59:08.208Z,10.30
2018-05-17T06:01:36.664Z,10.30
2018-05-17T06:04:04.868Z,10.40
2018-05-17T06:06:33.041Z,10.50
2018-05-17T06:09:01.210Z,10.70
2018-05-17T06:11:29.441Z,10.90
2018-05-17T06:13:57.638Z,11.10
2018-05-17T06:16:25.810Z,11.20
2018-05-17T06:18:54.017Z,11.20
2018-05-17T06:21:22.192Z,11.30
2018-05-17T06:23:50.401Z,11.30
2018-05-17T06:26:18.613Z,11.40
2018-05-17T06:28:46.804Z,11.40
2018-05-17T06:31:14.984Z,11.50
2018-05-17T06:33:43.178Z,11.60
2018-05-17T06:36:12.074Z,11.80
2018-05-17T06:38:40.303Z,12.10
2018-05-17T06:41:09.365Z,12.20
2018-05-17T06:43:37.612Z,12.30
2018-05-17T06:46:06.482Z,12.40
2018-05-17T06:48:34.684Z,12.50
2018-05-17T06:51:04.312Z,12.50
2018-05-17T06:53:33.438Z,12.60
2018-05-17T06:56:02.469Z,12.70
2018-05-17T06:58:31.142Z,12.90
2018-05-17T07:01:00.139Z,13.10
2018-05-17T07:03:28.354Z,13.20
2018-05-17T07:05:58.272Z,13.20
2018-05-17T07:08:28.021Z,13.30
2018-05-17T07:10:56.860Z,13.30
2018-05-17T07:13:25.061Z,13.30
2018-05-17T07:15:53.257Z,13.40
2018-05-17T07:18:21.487Z,13.40
2018-05-17T07:20:51.399Z,13.50
2018-05-17T07:23:19.622Z,13.60
2018-05-17T07:25:48.919Z,13.70
2018-05-17T07:28:18.868Z,13.80
2018-05-17T07:30:47.063Z,13.90
2018-05-17T07:33:16.231Z,13.90
2018-05-17T07:35:47.476Z,14.00
2018-05-17T07:38:16.010Z,14.10
2018-05-17T07:40:44.194Z,14.10
2018-05-17T07:43:12.718Z,14.20
2018-05-17T07:45:41.208Z,14.20
2018-05-17T07:48:10.093Z,14.30
2018-05-17T07:50:38.271Z,14.30
2018-05-17T07:53:06.474Z,14.40
2018-05-17T07:55:34.690Z,14.40
2018-05-17T07:58:02.868Z,14.40
2018-05-17T08:00:35.028Z,14.50
2018-05-17T08:03:03.894Z,14.50
2018-05-17T08:05:32.733Z,14.60
2018-05-17T08:08:01.495Z,14.60
2018-05-17T08:10:32.345Z,14.60
2018-05-17T08:13:01.867Z,14.70
2018-05-17T08:15:30.888Z,14.70
2018-05-17T08:17:59.621Z,14.70
2018-05-17T08:20:28.694Z,14.80
2018-05-17T08:22:56.895Z,14.80
2018-05-17T08:25:26.197Z,14.80
2018-05-17T08:27:55.292Z,14.90
2018-05-17T08:30:23.690Z,14.90
2018-05-17T08:32:51.919Z,14.90
2018-05-17T08:35:20.960Z,15.00
2018-05-17T08:37:50.016Z,15.00
2018-05-17T08:40:18.596Z,15.10
2018-05-17T08:42:46.832Z,15.20
2018-05-17T08:45:15.008Z,15.40
2018-05-17T08:47:43.471Z,15.70
2018-05-17T08:50:12.377Z,15.80
2018-05-17T08:52:40.565Z,15.90
2018-05-17T08:55:08.821Z,15.90
2018-05-17T08:57:37.031Z,15.90
2018-05-17T09:00:05.928Z,16.00
2018-05-17T09:02:34.167Z,16.20
2018-05-17T09:05:02.390Z,16.40
2018-05-17T09:07:31.483Z,16.40
2018-05-17T09:09:59.777Z,16.50
2018-05-17T09:12:28.544Z,16.50
2018-05-17T09:14:57.228Z,16.60
2018-05-17T09:17:25.512Z,16.70
2018-05-17T09:19:53.782Z,16.80
2018-05-17T09:22:22.637Z,16.90
2018-05-17T09:24:50.876Z,17.00
2018-05-17T09:27:19.942Z,17.00
2018-05-17T09:29:49.736Z,17.00
2018-05-17T09:32:18.688Z,17.00
2018-05-17T09:34:46.889Z,17.00
2018-05-17T09:37:15.072Z,17.00
2018-05-17T09:39:44.400Z,16.90
2018-05-17T09:42:15.185Z,16.90
2018-05-17T09:44:43.373Z,16.90
2018-05-17T09:47:11.577Z,17.00
2018-05-17T09:49:40.707Z,17.00
2018-05-17T09:52:09.260Z,17.00
2018-05-17T09:54:37.433Z,17.00
2018-05-17T09:57:06.314Z,17.00
2018-05-17T09:59:34.495Z,17.10
2018-05-17T10:02:02.704Z,17.10
2018-05-17T10:04:32.128Z,17.20
2018-05-17T10:07:01.483Z,17.20
2018-05-17T10:09:30.551Z,17.30
2018-05-17T10:12:00.523Z,17.30
2018-05-17T10:14:31.076Z,17.40
2018-05-17T10:17:00.056Z,17.40
2018-05-17T10:19:29.907Z,17.50
2018-05-17T10:22:00.232Z,17.60
2018-05-17T10:24:29.789Z,17.60
2018-05-17T10:26:59.024Z,17.70
2018-05-17T10:29:27.439Z,17.90
2018-05-17T10:31:55.593Z,18.00
2018-05-17T10:34:23.791Z,18.10
2018-05-17T10:36:53.765Z,18.20
2018-05-17T10:39:21.977Z,18.30
2018-05-17T10:41:50.977Z,18.60
2018-05-17T10:44:22.078Z,18.80
2018-05-17T10:46:50.284Z,19.10
2018-05-17T10:49:19.376Z,19.30
2018-05-17T10:51:48.886Z,19.60
2018-05-17T10:54:18.532Z,19.80
2018-05-17T10:56:46.705Z,20.00
2018-05-17T10:59:15.855Z,20.10
2018-05-17T11:01:44.537Z,20.20
2018-05-17T11:04:13.165Z,20.40
2018-05-17T11:06:41.447Z,20.60
2018-05-17T11:09:10.647Z,20.70
2018-05-17T11:11:38.862Z,20.80
2018-05-17T11:14:09.064Z,21.00
2018-05-17T11:16:37.257Z,21.10
2018-05-17T11:19:06.033Z,21.20
2018-05-17T11:21:34.508Z,21.20
2018-05-17T11:24:03.790Z,21.30
2018-05-17T11:26:33.699Z,21.40
2018-05-17T11:29:02.281Z,21.50
2018-05-17T11:31:31.505Z,21.70
2018-05-17T11:33:59.839Z,21.70
2018-05-17T11:36:28.928Z,21.60
2018-05-17T11:38:57.614Z,21.60
2018-05-17T11:41:28.031Z,21.60
2018-05-17T11:43:57.451Z,21.70
2018-05-17T11:46:25.643Z,21.80
2018-05-17T11:48:54.117Z,21.90
2018-05-17T11:51:22.305Z,22.00
2018-05-17T11:53:50.582Z,21.90
2018-05-17T11:56:19.137Z,22.00
2018-05-17T11:58:47.344Z,22.00
2018-05-17T12:01:16.601Z,22.00
2018-05-17T12:03:45.738Z,22.10
2018-05-17T12:06:14.866Z,22.10
2018-05-17T12:08:43.596Z,22.10
2018-05-17T12:11:11.798Z,22.20
2018-05-17T12:13:40.058Z,22.30
2018-05-17T12:16:08.247Z,22.50
2018-05-17T12:18:36.468Z,22.60
2018-05-17T12:21:04.662Z,22.70
2018-05-17T12:23:33.661Z,22.90
2018-05-17T12:26:02.684Z,23.00
2018-05-17T12:28:31.807Z,23.00
2018-05-17T12:31:00.004Z,23.20
2018-05-17T12:33:28.224Z,23.30
2018-05-17T12:35:57.211Z,23.40
2018-05-17T12:38:25.421Z,23.50
2018-05-17T12:40:53.616Z,23.60
2018-05-17T12:43:21.826Z,23.70
2018-05-17T12:45:50.535Z,23.80
2018-05-17T12:48:18.741Z,23.90
2018-05-17T12:50:46.941Z,24.00
2018-05-17T12:53:15.944Z,24.00
2018-05-17T12:55:44.152Z,24.00
2018-05-17T12:58:12.332Z,24.00
2018-05-17T13:00:40.498Z,24.00
2018-05-17T13:03:08.709Z,24.00
2018-05-17T13:05:36.881Z,23.90
2018-05-17T13:08:05.058Z,23.80
2018-05-17T13:10:33.252Z,23.70
2018-05-17T13:13:02.304Z,23.60
2018-05-17T13:15:30.502Z,23.50
2018-05-17T13:17:58.715Z,23.60
2018-05-17T13:20:27.768Z,23.60
2018-05-17T13:22:55.957Z,23.50
2018-05-17T13:25:25.046Z,23.40
2018-05-17T13:27:53.226Z,23.50
2018-05-17T13:30:21.568Z,23.60
2018-05-17T13:32:50.642Z,23.80
2018-05-17T13:35:18.873Z,24.00
2018-05-17T13:37:47.209Z,24.20
2018-05-17T13:40:15.611Z,24.40
2018-05-17T13:42:44.613Z,24.50
2018-05-17T13:45:12.787Z,24.60
2018-05-17T13:47:41.057Z,24.80
2018-05-17T13:50:10.897Z,25.10
2018-05-17T13:52:39.941Z,25.40
2018-05-17T13:55:08.145Z,25.90
2018-05-17T13:57:36.494Z,26.60
2018-05-17T14:00:05.518Z,27.60
2018-05-17T14:02:35.093Z,28.60
2018-05-17T14:05:03.312Z,29.50
2018-05-17T14:07:32.445Z,30.20
2018-05-17T14:10:01.213Z,30.70
2018-05-17T14:12:29.431Z,31.20
2018-05-17T14:14:57.613Z,31.80
2018-05-17T14:17:25.987Z,32.40
2018-05-17T14:19:54.880Z,32.80
2018-05-17T14:22:23.053Z,33.20
2018-05-17T14:24:51.254Z,33.60
2018-05-17T14:27:19.474Z,34.10
2018-05-17T14:29:48.032Z,34.60
2018-05-17T14:32:18.436Z,35.10
2018-05-17T14:34:46.633Z,35.70
2018-05-17T14:37:15.401Z,36.30
2018-05-17T14:39:44.563Z,36.90
2018-05-17T14:42:12.821Z,37.40
2018-05-17T14:44:41.064Z,37.90
2018-05-17T14:47:09.270Z,37.70
2018-05-17T14:49:38.195Z,37.80
2018-05-17T14:52:07.207Z,37.80
2018-05-17T14:54:35.418Z,37.70
2018-05-17T14:57:03.634Z,38.00
2018-05-17T14:59:31.838Z,38.10
2018-05-17T15:02:00.067Z,38.40
2018-05-17T15:04:28.254Z,38.90
2018-05-17T15:06:56.611Z,39.40
2018-05-17T15:09:25.355Z,39.90
2018-05-17T15:11:53.528Z,40.20
2018-05-17T15:14:21.706Z,40.60
2018-05-17T15:16:49.916Z,40.70
2018-05-17T15:19:18.904Z,40.50
2018-05-17T15:21:47.880Z,40.50
2018-05-17T15:24:16.133Z,40.40
2018-05-17T15:26:44.308Z,40.10
2018-05-17T15:29:13.305Z,40.10
2018-05-17T15:31:41.505Z,40.30
2018-05-17T15:34:09.701Z,40.40
2018-05-17T15:36:38.602Z,40.50
2018-05-17T15:39:06.844Z,40.50
2018-05-17T15:41:35.124Z,40.60
2018-05-17T15:44:03.312Z,40.80
2018-05-17T15:46:32.449Z,41.00
2018-05-17T15:49:00.727Z,40.90
2018-05-17T15:51:29.739Z,40.50
2018-05-17T15:53:57.974Z,40.10
2018-05-17T15:56:26.601Z,40.30
2018-05-17T15:58:54.777Z,40.70
2018-05-17T16:01:22.966Z,40.70
2018-05-17T16:03:51.143Z,39.90
2018-05-17T16:06:20.805Z,38.90
2018-05-17T16:08:50.053Z,38.40
2018-05-17T16:11:19.057Z,38.30
2018-05-17T16:13:48.034Z,38.40
2018-05-17T16:16:16.232Z,38.50
2018-05-17T16:18:46.504Z,38.50
2018-05-17T16:21:15.148Z,38.30
2018-05-17T16:23:43.784Z,38.00
2018-05-17T16:26:12.093Z,37.70
2018-05-17T16:28:41.217Z,37.50
2018-05-17T16:31:09.433Z,37.50
2018-05-17T16:33:37.623Z,37.30
2018-05-17T16:36:05.859Z,36.60
2018-05-17T16:38:34.119Z,36.10
2018-05-17T16:41:02.326Z,35.90
2018-05-17T16:43:30.621Z,35.60
2018-05-17T16:45:59.623Z,35.40
2018-05-17T16:48:28.000Z,35.10
2018-05-17T16:50:56.163Z,35.00
2018-05-17T16:53:24.695Z,34.90
2018-05-17T16:55:52.846Z,34.90
2018-05-17T16:58:22.460Z,35.00
2018-05-17T17:00:50.637Z,34.90
2018-05-17T17:03:19.595Z,34.60
2018-05-17T17:05:47.816Z,34.40
2018-05-17T17:08:16.062Z,34.00
2018-05-17T17:10:45.338Z,33.50
2018-05-17T17:13:13.717Z,32.90
2018-05-17T17:15:42.589Z,32.30
2018-05-17T17:18:10.791Z,32.00
2018-05-17T17:20:39.304Z,31.60
2018-05-17T17:23:07.623Z,31.40
2018-05-17T17:25:36.004Z,31.30
2018-05-17T17:28:04.260Z,31.50
2018-05-17T17:30:33.384Z,31.60
2018-05-17T17:33:01.590Z,31.60
2018-05-17T17:35:29.785Z,31.50
2018-05-17T17:37:59.832Z,31.50
2018-05-17T17:40:34.302Z,31.40
2018-05-17T17:43:02.514Z,31.40
2018-05-17T17:45:31.553Z,31.40
2018-05-17T17:47:59.887Z,31.40
2018-05-17T17:50:28.109Z,31.40
2018-05-17T17:52:57.453Z,31.30
2018-05-17T17:55:27.308Z,31.30
2018-05-17T17:57:56.941Z,31.20
2018-05-17T18:00:26.579Z,31.20
2018-05-17T18:02:55.769Z,31.20
2018-05-17T18:05:24.753Z,30.80
2018-05-17T18:07:54.135Z,30.40
2018-05-17T18:10:22.912Z,30.10
2018-05-17T18:12:52.877Z,29.70
2018-05-17T18:15:21.122Z,29.30
2018-05-17T18:17:49.298Z,28.90
2018-05-17T18:20:17.526Z,28.50
2018-05-17T18:22:45.807Z,28.10
2018-05-17T18:25:13.936Z,27.70
2018-05-17T18:27:43.454Z,27.30
2018-05-17T18:30:15.408Z,26.90
2018-05-17T18:32:44.489Z,26.50
2018-05-17T18:35:12.620Z,26.20
2018-05-17T18:37:42.001Z,26.00
2018-05-17T18:40:13.558Z,25.90
2018-05-17T18:42:42.335Z,25.90
2018-05-17T18:45:10.596Z,26.00
2018-05-17T18:47:38.796Z,26.00
2018-05-17T18:50:07.896Z,26.00
2018-05-17T18:52:36.090Z,26.10
2018-05-17T18:55:04.998Z,26.10
2018-05-17T18:57:33.172Z,26.00
2018-05-17T19:00:02.305Z,25.70
2018-05-17T19:02:32.096Z,25.40
2018-05-17T19:05:04.708Z,25.20
2018-05-17T19:07:33.579Z,24.80
2018-05-17T19:10:02.683Z,24.60
2018-05-17T19:12:31.246Z,24.40
2018-05-17T19:14:59.452Z,24.20
2018-05-17T19:17:27.737Z,24.00
2018-05-17T19:19:55.884Z,23.80
2018-05-17T19:22:24.944Z,23.60
2018-05-17T19:24:53.220Z,23.30
2018-05-17T19:27:21.419Z,23.10
2018-05-17T19:29:49.616Z,22.90
2018-05-17T19:32:18.560Z,22.70
2018-05-17T19:34:46.847Z,22.50
2018-05-17T19:37:16.124Z,22.40
2018-05-17T19:39:44.213Z,22.20
2018-05-17T19:42:12.729Z,22.00
2018-05-17T19:44:42.426Z,21.80
2018-05-17T19:47:10.712Z,21.60
2018-05-17T19:49:38.888Z,21.30
2018-05-17T19:52:07.114Z,21.10
2018-05-17T19:54:35.293Z,20.90
2018-05-17T19:57:03.512Z,20.70
2018-05-17T19:59:32.957Z,20.60
2018-05-17T20:02:02.312Z,20.40
2018-05-17T20:04:30.528Z,20.20
2018-05-17T20:06:58.811Z,20.00
2018-05-17T20:09:27.766Z,19.80
2018-05-17T20:11:57.236Z,19.60
2018-05-17T20:14:26.316Z,19.30
2018-05-17T20:16:54.522Z,19.10
2018-05-17T20:19:22.753Z,19.00
2018-05-17T20:21:50.979Z,18.80
2018-05-17T20:24:19.205Z,18.60
2018-05-17T20:26:51.251Z,18.50
2018-05-17T20:29:19.495Z,18.30
2018-05-17T20:31:47.716Z,18.30
2018-05-17T20:34:16.028Z,18.20
2018-05-17T20:36:44.268Z,18.10
2018-05-17T20:39:12.480Z,18.00
2018-05-17T20:41:40.713Z,17.90
2018-05-17T20:44:09.824Z,17.80
2018-05-17T20:46:38.023Z,17.70
2018-05-17T20:49:06.297Z,17.60
2018-05-17T20:51:34.480Z,17.50
2018-05-17T20:54:02.670Z,17.40
2018-05-17T20:56:30.883Z,17.30
2018-05-17T20:58:59.153Z,17.30
2018-05-17T21:01:27.368Z,17.20
2018-05-17T21:03:57.216Z,17.10
2018-05-17T21:06:25.409Z,17.00
2018-05-17T21:08:53.592Z,17.00
2018-05-17T21:11:21.807Z,16.90
2018-05-17T21:13:50.007Z,16.90
2018-05-17T21:16:18.460Z,16.80
2018-05-17T21:18:46.664Z,16.70
2018-05-17T21:21:14.877Z,16.60
2018-05-17T21:23:44.307Z,16.50
2018-05-17T21:26:13.629Z,16.50
2018-05-17T21:28:42.600Z,16.40
2018-05-17T21:31:12.011Z,16.30
2018-05-17T21:33:41.467Z,16.20
2018-05-17T21:36:10.534Z,16.10
2018-05-17T21:38:38.787Z,16.00
2018-05-17T21:41:08.007Z,15.80
2018-05-17T21:43:37.051Z,15.70
2018-05-17T21:46:06.416Z,15.50
2018-05-17T21:48:34.625Z,15.40
2018-05-17T21:51:03.949Z,15.30
2018-05-17T21:53:32.173Z,15.20
2018-05-17T21:56:00.354Z,15.10
2018-05-17T21:58:32.745Z,15.00
2018-05-17T22:01:01.189Z,14.90
2018-05-17T22:03:29.449Z,14.80
2018-05-17T22:05:57.990Z,14.70
2018-05-17T22:08:26.225Z,14.60
2018-05-17T22:10:54.424Z,14.50
2018-05-17T22:13:22.653Z,14.40
2018-05-17T22:15:51.257Z,14.30
2018-05-17T22:18:19.506Z,14.20
2018-05-17T22:20:47.784Z,14.10
2018-05-17T22:23:15.987Z,14.00
2018-05-17T22:25:44.172Z,13.90
2018-05-17T22:28:13.209Z,13.80
2018-05-17T22:30:45.085Z,13.70
2018-05-17T22:33:13.285Z,13.70
2018-05-17T22:35:42.286Z,13.60
2018-05-17T22:38:11.820Z,13.50
2018-05-17T22:40:40.983Z,13.50
2018-05-17T22:43:10.023Z,13.40
2018-05-17T22:45:38.230Z,13.30
2018-05-17T22:48:06.437Z,13.30
2018-05-17T22:50:34.630Z,13.20
2018-05-17T22:53:03.261Z,13.20
2018-05-17T22:55:31.501Z,13.10
2018-05-17T22:58:18.147Z,13.00
2018-05-17T23:00:46.492Z,13.00
2018-05-17T23:03:14.669Z,12.90
2018-05-17T23:05:42.869Z,12.90
2018-05-17T23:08:11.047Z,12.80
2018-05-17T23:10:39.246Z,12.80
2018-05-17T23:13:07.478Z,12.80
2018-05-17T23:15:36.667Z,12.70
2018-05-17T23:18:05.249Z,12.70
2018-05-17T23:20:33.489Z,12.60
2018-05-17T23:23:01.664Z,12.60
2018-05-17T23:25:29.904Z,12.60
2018-05-17T23:27:58.111Z,12.50
2018-05-17T23:30:26.325Z,12.50
2018-05-17T23:32:54.528Z,12.40
2018-05-17T23:35:22.842Z,12.40
2018-05-17T23:37:51.036Z,12.30
2018-05-17T23:40:36.869Z,12.30
2018-05-17T23:43:05.046Z,12.30
2018-05-17T23:45:33.217Z,12.20
2018-05-17T23:48:01.420Z,12.20
2018-05-17T23:50:29.603Z,12.20
2018-05-17T23:52:57.791Z,12.10
2018-05-17T23:55:25.989Z,12.10
2018-05-17T23:57:54.181Z,12.10
